Time;durP1;ratioP1;P1;durP2;ratioP2;P2;SDS_P1;SDS_P2;PMS_P1;PMS_P2;Temp;Humidity;BMP_temperature;BMP_pressure;BME280_temperature;BME280_humidity;BME280_pressure;Samples;Min_cycle;Max_cycle;Signal;HPM_P1;HPM_P2
2022/04/15 00:00:26;;;;;;;;;;;;;;;14.01;54.12;101358.06;4985731;28;7194;-74
2022/04/15 00:02:52;;;;;;;;;;;;;;;13.96;54.56;101357.84;4970876;28;8073;-74
2022/04/15 00:05:36;;;;;;;;;;;;;;;13.91;54.11;101354.19;4986676;28;7089;-74
2022/04/15 00:08:07;;;;;;;;;;;;;;;13.85;54.31;101353.84;4972722;28;6900;-74
2022/04/15 00:10:34;;;;;;;;;;;;;;;13.80;54.30;101348.47;4986273;28;7187;-74
2022/04/15 00:13:02;;;;;;;;;;;;;;;13.78;54.56;101356.94;4969694;28;6896;-74
2022/04/15 00:15:27;;;;;;;;;;;;;;;13.75;54.35;101355.06;4985959;28;7177;-74
2022/04/15 00:17:54;;;;;;;;;;;;;;;13.71;54.50;101361.78;4986647;28;7138;-74
2022/04/15 00:20:20;;;;;;;;;;;;;;;13.69;54.91;101355.66;4986230;28;7184;-74
2022/04/15 00:22:46;;;;;;;;;;;;;;;13.67;55.69;101346.97;4985309;28;6963;-74
2022/04/15 00:25:12;;;;;;;;;;;;;;;13.66;54.81;101355.50;4985925;28;7657;-74
2022/04/15 00:27:40;;;;;;;;;;;;;;;13.62;55.05;101358.75;4984456;28;6787;-74
2022/04/15 00:30:10;;;;;;;;;;;;;;;13.60;56.01;101368.97;4984216;28;6816;-74
2022/04/15 00:32:35;;;;;;;;;;;;;;;13.59;55.41;101359.47;5003901;28;6800;-74
2022/04/15 00:35:03;;;;;;;;;;;;;;;13.57;55.59;101362.78;4985443;28;6976;-74
2022/04/15 00:37:31;;;;;;;;;;;;;;;13.53;55.50;101366.88;4984049;28;7289;-74
2022/04/15 00:39:58;;;;;;;;;;;;;;;13.50;55.52;101364.16;4984916;28;6974;-74
2022/04/15 00:42:24;;;;;;;;;;;;;;;13.46;55.87;101360.53;4987177;28;7291;-74
2022/04/15 00:45:00;;;;;;;;;;;;;;;13.44;56.00;101364.72;4999941;28;6825;-74
2022/04/15 00:47:55;;;;;;;;;;;;;;;13.40;55.27;101365.31;4986788;28;7421;-74
2022/04/15 00:50:33;;;;;;;;;;;;;;;13.36;55.52;101373.69;4985486;28;6974;-74
2022/04/15 00:53:06;;;;;;;;;;;;;;;13.35;56.50;101369.38;4983659;28;6824;-74
2022/04/15 00:55:32;;;;;;;;;;;;;;;13.33;55.66;101374.41;5001283;28;6892;-74
2022/04/15 00:58:01;;;;;;;;;;;;;;;13.31;56.19;101373.47;4963575;28;8294;-74
2022/04/15 01:00:31;;;;;;;;;;;;;;;13.30;56.47;101375.94;4984882;28;6792;-74
2022/04/15 01:02:59;;;;;;;;;;;;;;;13.29;56.26;101376.75;5000495;28;6804;-74
2022/04/15 01:05:26;;;;;;;;;;;;;;;13.28;56.05;101385.28;4969672;28;6899;-74
2022/04/15 01:08:00;;;;;;;;;;;;;;;13.27;55.96;101375.78;5000983;28;6808;-74
2022/04/15 01:10:27;;;;;;;;;;;;;;;13.24;56.95;101381.66;4986731;28;7021;-74
2022/04/15 01:12:56;;;;;;;;;;;;;;;13.24;56.08;101381.66;4983903;28;7379;-74
2022/04/15 01:15:25;;;;;;;;;;;;;;;13.23;56.01;101381.56;4984655;28;6812;-74
2022/04/15 01:17:52;;;;;;;;;;;;;;;13.20;56.48;101380.59;4984128;28;6835;-74
2022/04/15 01:20:18;;;;;;;;;;;;;;;13.18;56.98;101386.47;4985989;28;6803;-74
2022/04/15 01:22:47;;;;;;;;;;;;;;;13.16;56.77;101381.25;4998921;28;7855;-74
2022/04/15 01:25:17;;;;;;;;;;;;;;;13.14;56.50;101375.16;4998583;28;6840;-74
2022/04/15 01:27:48;;;;;;;;;;;;;;;13.12;56.98;101379.31;4984141;28;7277;-74
2022/04/15 01:30:21;;;;;;;;;;;;;;;13.10;57.23;101380.94;4967767;28;7454;-75
2022/04/15 01:32:48;;;;;;;;;;;;;;;13.08;57.17;101387.69;4984300;28;6977;-75
2022/04/15 01:35:16;;;;;;;;;;;;;;;13.05;56.29;101390.97;4984576;28;7229;-74
2022/04/15 01:37:44;;;;;;;;;;;;;;;13.01;56.40;101388.16;5001357;28;6812;-74
2022/04/15 01:40:13;;;;;;;;;;;;;;;12.99;56.42;101387.19;4979244;28;6807;-74
2022/04/15 01:42:41;;;;;;;;;;;;;;;12.94;57.03;101383.47;4959195;28;6980;-74
2022/04/15 01:45:09;;;;;;;;;;;;;;;12.92;56.85;101385.97;4999176;28;6808;-74
2022/04/15 01:47:36;;;;;;;;;;;;;;;12.90;56.50;101392.75;4984527;28;7119;-74
2022/04/15 01:50:04;;;;;;;;;;;;;;;12.87;56.33;101392.56;4984862;28;6804;-74
2022/04/15 01:52:30;;;;;;;;;;;;;;;12.83;56.40;101399.22;4982779;28;6815;-74
2022/04/15 01:54:56;;;;;;;;;;;;;;;12.78;57.07;101390.38;4985959;28;6866;-74
2022/04/15 01:57:21;;;;;;;;;;;;;;;12.75;56.72;101405.66;4981949;28;7027;-74
2022/04/15 01:59:47;;;;;;;;;;;;;;;12.72;56.48;101400.31;4985230;28;7090;-74
2022/04/15 02:02:13;;;;;;;;;;;;;;;12.70;57.06;101407.97;4982708;28;7045;-74
2022/04/15 02:04:39;;;;;;;;;;;;;;;12.66;56.46;101403.44;4985299;28;7173;-74
2022/04/15 02:07:05;;;;;;;;;;;;;;;12.62;56.48;101402.38;4986951;28;7036;-74
2022/04/15 02:09:30;;;;;;;;;;;;;;;12.58;57.14;101407.25;4984304;28;6796;-74
2022/04/15 02:11:57;;;;;;;;;;;;;;;12.52;57.02;101405.22;4984708;28;6879;-74
2022/04/15 02:14:23;;;;;;;;;;;;;;;12.46;57.01;101404.91;5000881;28;7094;-74
2022/04/15 02:16:53;;;;;;;;;;;;;;;12.41;56.34;101409.78;4983498;28;6981;-74
2022/04/15 02:19:21;;;;;;;;;;;;;;;12.35;56.44;101409.44;4982568;28;6808;-74
2022/04/15 02:21:47;;;;;;;;;;;;;;;12.31;56.87;101403.22;4968938;28;6808;-74
2022/04/15 02:24:14;;;;;;;;;;;;;;;12.28;57.04;101415.91;4983865;28;6792;-74
2022/04/15 02:26:40;;;;;;;;;;;;;;;12.24;57.22;101406.25;4984732;28;6804;-74
2022/04/15 02:29:06;;;;;;;;;;;;;;;12.22;57.31;101410.41;4983360;28;6808;-74
2022/04/15 02:31:31;;;;;;;;;;;;;;;12.22;57.49;101410.41;4982574;28;6803;-74
2022/04/15 02:33:57;;;;;;;;;;;;;;;12.21;57.64;101406.06;4984555;28;6799;-73
2022/04/15 02:36:23;;;;;;;;;;;;;;;12.22;57.87;101412.97;4983978;28;6966;-73
2022/04/15 02:38:48;;;;;;;;;;;;;;;12.22;57.71;101407.84;4984005;28;6784;-73
2022/04/15 02:41:14;;;;;;;;;;;;;;;12.22;58.18;101420.69;4965700;28;6796;-73
2022/04/15 02:43:41;;;;;;;;;;;;;;;12.22;57.92;101419.03;4984422;28;7118;-73
2022/04/15 02:46:09;;;;;;;;;;;;;;;12.22;58.01;101420.69;4983127;28;6804;-73
2022/04/15 02:48:35;;;;;;;;;;;;;;;12.23;57.80;101419.88;4984583;28;7023;-73
2022/04/15 02:51:03;;;;;;;;;;;;;;;12.21;58.18;101417.22;4983031;28;6808;-73
2022/04/15 02:53:31;;;;;;;;;;;;;;;12.22;57.46;101408.75;4984595;28;7998;-73
2022/04/15 02:55:57;;;;;;;;;;;;;;;12.21;57.76;101416.34;4972085;28;6816;-73
2022/04/15 02:58:24;;;;;;;;;;;;;;;12.20;57.42;101427.44;4989262;28;6800;-73
2022/04/15 03:00:50;;;;;;;;;;;;;;;12.19;57.56;101423.97;4953706;28;6983;-73
2022/04/15 03:03:16;;;;;;;;;;;;;;;12.19;58.00;101426.53;4989436;28;6832;-73
2022/04/15 03:05:43;;;;;;;;;;;;;;;12.20;57.58;101428.31;4967774;28;6812;-73
2022/04/15 03:08:08;;;;;;;;;;;;;;;12.20;57.63;101425.72;4988971;28;6800;-73
2022/04/15 03:10:34;;;;;;;;;;;;;;;12.21;57.90;101426.63;5006687;28;6776;-73
2022/04/15 03:13:01;;;;;;;;;;;;;;;12.20;57.88;101424.88;4989146;28;6815;-74
2022/04/15 03:15:27;;;;;;;;;;;;;;;12.19;57.63;101428.25;4965182;28;7099;-73
2022/04/15 03:17:52;;;;;;;;;;;;;;;12.18;57.80;101429.03;4989899;28;6946;-73
2022/04/15 03:20:18;;;;;;;;;;;;;;;12.17;57.86;101429.84;4988224;28;6812;-73
2022/04/15 03:22:45;;;;;;;;;;;;;;;12.15;57.69;101428.84;4989952;28;7180;-73
2022/04/15 03:25:18;;;;;;;;;;;;;;;12.14;57.76;101432.22;4989448;28;6784;-73
2022/04/15 03:27:46;;;;;;;;;;;;;;;12.11;58.18;101427.78;5002343;28;6947;-73
2022/04/15 03:30:14;;;;;;;;;;;;;;;12.11;57.74;101426.91;4971890;28;7092;-73
2022/04/15 03:32:52;;;;;;;;;;;;;;;12.10;57.80;101423.44;4988362;28;7015;-73
2022/04/15 03:35:21;;;;;;;;;;;;;;;12.08;57.91;101427.59;4989259;28;6800;-73
2022/04/15 03:37:51;;;;;;;;;;;;;;;12.03;58.05;101427.34;4989142;28;6892;-75
2022/04/15 03:40:19;;;;;;;;;;;;;;;11.99;57.78;101424.47;4968726;28;7024;-75
2022/04/15 03:42:54;;;;;;;;;;;;;;;11.97;58.15;101428.63;4989800;28;6816;-76
2022/04/15 03:45:22;;;;;;;;;;;;;;;11.93;57.78;101430.13;4987709;28;7005;-75
2022/04/15 03:47:54;;;;;;;;;;;;;;;11.87;57.90;101430.66;4988434;28;7042;-75
2022/04/15 03:50:21;;;;;;;;;;;;;;;11.81;57.66;101433.75;4971967;28;7066;-75
2022/04/15 03:52:48;;;;;;;;;;;;;;;11.77;58.30;101428.34;4988645;28;6804;-75
2022/04/15 03:55:17;;;;;;;;;;;;;;;11.72;58.08;101432.28;5003618;28;6998;-75
2022/04/15 03:57:43;;;;;;;;;;;;;;;11.67;57.72;101434.59;4988713;28;6879;-75
2022/04/15 04:00:17;;;;;;;;;;;;;;;11.61;57.73;101432.53;4989038;28;7884;-75
2022/04/15 04:02:49;;;;;;;;;;;;;;;11.56;57.96;101438.19;4973640;28;6812;-75
2022/04/15 04:05:15;;;;;;;;;;;;;;;11.51;57.95;101435.34;5002595;28;8401;-75
2022/04/15 04:07:42;;;;;;;;;;;;;;;11.46;57.85;101432.50;4989170;28;6788;-75
2022/04/15 04:10:10;;;;;;;;;;;;;;;11.44;58.04;101431.53;4989009;28;6816;-75
2022/04/15 04:12:36;;;;;;;;;;;;;;;11.42;58.06;101430.56;4988296;28;6811;-75
2022/04/15 04:15:06;;;;;;;;;;;;;;;11.41;58.51;101433.91;4988911;28;6914;-76
2022/04/15 04:17:32;;;;;;;;;;;;;;;11.41;58.45;101433.03;4989086;28;6952;-76
2022/04/15 04:19:58;;;;;;;;;;;;;;;11.42;58.39;101438.25;4988257;28;8308;-76
2022/04/15 04:22:35;;;;;;;;;;;;;;;11.42;58.27;101437.34;4989176;28;6816;-76
2022/04/15 04:25:02;;;;;;;;;;;;;;;11.42;58.44;101440.81;4988257;28;6896;-74
2022/04/15 04:27:28;;;;;;;;;;;;;;;11.41;58.67;101444.19;5005259;28;6978;-74
2022/04/15 04:29:53;;;;;;;;;;;;;;;11.38;58.21;101439.75;5005082;28;6850;-74
2022/04/15 04:32:20;;;;;;;;;;;;;;;11.36;58.16;101443.00;4988098;28;6882;-74
2022/04/15 04:34:46;;;;;;;;;;;;;;;11.34;58.02;101445.47;4986222;28;7061;-73
2022/04/15 04:37:12;;;;;;;;;;;;;;;11.31;58.50;101445.28;4989072;28;6799;-73
2022/04/15 04:39:38;;;;;;;;;;;;;;;11.29;58.32;101445.97;4987157;28;6958;-73
2022/04/15 04:42:06;;;;;;;;;;;;;;;11.27;58.48;101447.56;4986395;28;6787;-73
2022/04/15 04:44:33;;;;;;;;;;;;;;;11.24;58.88;101454.28;4986669;28;6812;-73
2022/04/15 04:47:00;;;;;;;;;;;;;;;11.23;58.69;101460.22;4986442;28;7287;-73
2022/04/15 04:49:26;;;;;;;;;;;;;;;11.23;58.47;101452.53;4989540;28;7646;-73
2022/04/15 04:51:53;;;;;;;;;;;;;;;11.25;58.50;101461.19;4986053;28;7062;-73
2022/04/15 04:54:19;;;;;;;;;;;;;;;11.26;58.24;101462.09;4999729;28;7097;-73
2022/04/15 04:56:45;;;;;;;;;;;;;;;11.31;59.14;101464.94;4987256;28;6856;-73
2022/04/15 04:59:11;;;;;;;;;;;;;;;11.35;59.12;101474.59;4987402;28;6896;-73
2022/04/15 05:01:37;;;;;;;;;;;;;;;11.37;59.12;101475.56;4970481;28;6852;-73
2022/04/15 05:04:02;;;;;;;;;;;;;;;11.42;59.02;101478.44;5003533;28;6871;-73
2022/04/15 05:06:28;;;;;;;;;;;;;;;11.46;59.23;101483.84;4987431;28;6795;-73
2022/04/15 05:08:54;;;;;;;;;;;;;;;11.49;59.16;101481.50;5001112;28;6824;-73
2022/04/15 05:11:19;;;;;;;;;;;;;;;11.52;59.42;101484.22;4987244;28;6799;-73
2022/04/15 05:13:45;;;;;;;;;;;;;;;11.56;58.85;101481.84;4986104;28;6885;-73
2022/04/15 05:16:11;;;;;;;;;;;;;;;11.61;58.87;101488.16;4987769;28;6925;-73
2022/04/15 05:18:36;;;;;;;;;;;;;;;11.64;59.20;101490.91;4970865;28;7027;-73
2022/04/15 05:21:02;;;;;;;;;;;;;;;11.68;59.19;101492.84;4984921;28;6824;-73
2022/04/15 05:23:28;;;;;;;;;;;;;;;11.71;59.68;101505.91;4988036;28;6820;-73
2022/04/15 05:25:53;;;;;;;;;;;;;;;11.77;59.40;101498.56;4986987;28;6879;-73
2022/04/15 05:28:19;;;;;;;;;;;;;;;11.85;59.48;101510.97;4984403;28;6943;-73
2022/04/15 05:30:45;;;;;;;;;;;;;;;11.92;59.31;101505.44;4987255;28;6784;-73
2022/04/15 05:33:10;;;;;;;;;;;;;;;11.99;59.53;101505.00;4986366;28;6791;-73
2022/04/15 05:35:36;;;;;;;;;;;;;;;12.07;59.93;101514.09;4987079;28;6910;-73
2022/04/15 05:38:03;;;;;;;;;;;;;;;12.16;59.54;101513.75;5003687;28;6792;-73
2022/04/15 05:40:29;;;;;;;;;;;;;;;12.26;60.01;101517.72;4985310;28;6803;-73
2022/04/15 05:42:55;;;;;;;;;;;;;;;12.35;60.11;101507.13;4987004;28;6900;-73
2022/04/15 05:45:21;;;;;;;;;;;;;;;12.43;59.61;101512.69;4986447;28;6864;-73
2022/04/15 05:47:46;;;;;;;;;;;;;;;12.49;59.30;101518.22;4969588;28;7397;-73
2022/04/15 05:50:12;;;;;;;;;;;;;;;12.56;59.63;101515.22;5001888;28;6803;-73
2022/04/15 05:52:38;;;;;;;;;;;;;;;12.63;59.50;101527.59;4987773;28;7183;-73
2022/04/15 05:55:04;;;;;;;;;;;;;;;12.70;59.60;101528.84;4984646;28;6935;-73
2022/04/15 05:57:30;;;;;;;;;;;;;;;12.76;59.50;101529.19;5001234;28;6807;-73
2022/04/15 05:59:55;;;;;;;;;;;;;;;12.81;59.08;101532.03;4987206;28;7701;-73
2022/04/15 06:02:22;;;;;;;;;;;;;;;12.91;59.16;101530.88;4982064;28;6812;-73
2022/04/15 06:04:48;;;;;;;;;;;;;;;13.00;59.34;101538.22;4987140;28;7161;-73
2022/04/15 06:07:14;;;;;;;;;;;;;;;13.10;59.92;101544.78;4999714;28;7047;-73
2022/04/15 06:09:39;;;;;;;;;;;;;;;13.19;59.22;101543.59;4986259;28;6795;-73
2022/04/15 06:12:06;;;;;;;;;;;;;;;13.30;59.28;101548.44;5000602;28;6811;-73
2022/04/15 06:14:35;;;;;;;;;;;;;;;13.38;58.91;101552.34;4966988;28;6879;-73
2022/04/15 06:17:02;;;;;;;;;;;;;;;13.46;59.27;101556.25;4984321;28;7018;-73
2022/04/15 06:19:28;;;;;;;;;;;;;;;13.53;59.56;101565.19;4985264;28;6908;-73
2022/04/15 06:21:54;;;;;;;;;;;;;;;13.56;58.65;101557.63;4979580;28;6791;-73
2022/04/15 06:24:20;;;;;;;;;;;;;;;13.63;58.83;101558.88;4985204;28;7166;-73
2022/04/15 06:26:46;;;;;;;;;;;;;;;13.66;58.70;101566.75;4980613;28;6966;-73
2022/04/15 06:29:11;;;;;;;;;;;;;;;13.73;59.31;101571.44;4985079;28;7150;-73
2022/04/15 06:31:37;;;;;;;;;;;;;;;13.78;59.19;101568.22;4982374;28;6803;-73
2022/04/15 06:34:03;;;;;;;;;;;;;;;13.83;59.20;101571.94;4999662;28;7160;-73
2022/04/15 06:36:29;;;;;;;;;;;;;;;13.91;58.45;101572.31;5001216;28;7377;-73
2022/04/15 06:38:55;;;;;;;;;;;;;;;13.99;58.90;101579.66;5000205;28;6791;-73
2022/04/15 06:41:20;;;;;;;;;;;;;;;14.07;59.41;101574.91;4981630;28;7085;-73
2022/04/15 06:43:46;;;;;;;;;;;;;;;14.17;59.17;101581.41;4968804;28;6918;-73
2022/04/15 06:46:12;;;;;;;;;;;;;;;14.24;58.90;101580.94;4981132;28;7007;-73
2022/04/15 06:48:37;;;;;;;;;;;;;;;14.32;59.25;101585.63;4982911;28;7334;-73
2022/04/15 06:51:03;;;;;;;;;;;;;;;14.40;59.22;101590.34;4986188;28;6820;-73
2022/04/15 06:53:29;;;;;;;;;;;;;;;14.51;58.58;101596.06;4968169;28;7037;-73
2022/04/15 06:55:55;;;;;;;;;;;;;;;14.60;58.61;101594.78;4980922;28;7259;-73
2022/04/15 06:58:21;;;;;;;;;;;;;;;14.67;58.62;101602.00;4968611;28;6958;-73
2022/04/15 07:00:47;;;;;;;;;;;;;;;14.72;58.02;101596.28;4999595;28;6852;-73
2022/04/15 07:03:13;;;;;;;;;;;;;;;14.75;57.75;101598.13;4983245;28;6887;-73
2022/04/15 07:05:40;;;;;;;;;;;;;;;14.79;58.53;101599.19;4998927;28;7109;-73
2022/04/15 07:08:10;;;;;;;;;;;;;;;14.82;58.63;101595.06;4981587;28;6796;-73
2022/04/15 07:10:39;;;;;;;;;;;;;;;14.84;58.13;101595.16;5001123;28;7163;-73
2022/04/15 07:13:05;;;;;;;;;;;;;;;14.89;58.28;101600.53;4984375;28;7074;-73
2022/04/15 07:15:31;;;;;;;;;;;;;;;14.95;57.70;101608.56;4986194;28;7004;-73
2022/04/15 07:17:57;;;;;;;;;;;;;;;14.99;58.14;101606.22;4985641;28;7144;-73
2022/04/15 07:20:23;;;;;;;;;;;;;;;15.07;59.01;101613.44;4984332;28;8050;-73
2022/04/15 07:23:00;;;;;;;;;;;;;;;15.21;58.40;101612.44;4968009;28;6964;-73
2022/04/15 07:25:26;;;;;;;;;;;;;;;15.37;58.41;101614.06;4984081;28;6820;-73
2022/04/15 07:27:53;;;;;;;;;;;;;;;15.47;58.06;101620.53;4985614;28;7920;-73
2022/04/15 07:30:19;;;;;;;;;;;;;;;15.53;57.51;101622.50;4988771;28;6824;-73
2022/04/15 07:32:45;;;;;;;;;;;;;;;15.50;56.97;101624.97;4986293;28;7091;-73
2022/04/15 07:35:11;;;;;;;;;;;;;;;15.44;56.43;101627.25;4987661;28;7292;-73
2022/04/15 07:37:37;;;;;;;;;;;;;;;15.38;57.15;101630.44;4985746;28;6998;-73
2022/04/15 07:40:03;;;;;;;;;;;;;;;15.33;56.75;101630.19;4985594;28;7243;-73
2022/04/15 07:42:29;;;;;;;;;;;;;;;15.30;56.48;101637.81;4983600;28;6989;-73
2022/04/15 07:44:54;;;;;;;;;;;;;;;15.26;57.21;101638.50;4984032;28;7722;-73
2022/04/15 07:47:20;;;;;;;;;;;;;;;15.18;56.95;101638.09;4990530;28;6807;-73
2022/04/15 07:49:46;;;;;;;;;;;;;;;15.13;57.02;101634.41;4991053;28;7739;-73
2022/04/15 07:52:11;;;;;;;;;;;;;;;15.10;57.21;101642.91;4986200;28;6816;-73
2022/04/15 07:54:37;;;;;;;;;;;;;;;15.08;56.64;101646.19;4991645;28;7315;-73
2022/04/15 07:57:03;;;;;;;;;;;;;;;14.96;56.30;101647.38;4967907;28;6955;-73
2022/04/15 07:59:29;;;;;;;;;;;;;;;14.80;57.12;101660.31;4986835;28;6800;-73
2022/04/15 08:01:56;;;;;;;;;;;;;;;14.63;56.93;101654.25;4990794;28;6804;-73
2022/04/15 08:04:22;;;;;;;;;;;;;;;14.48;56.83;101662.09;4988239;28;6800;-73
2022/04/15 08:06:48;;;;;;;;;;;;;;;14.36;57.51;101665.81;4987146;28;6855;-73
2022/04/15 08:09:14;;;;;;;;;;;;;;;14.27;57.38;101665.31;4971364;28;7296;-73
2022/04/15 08:11:39;;;;;;;;;;;;;;;14.23;57.23;101669.41;4986339;28;6792;-73
2022/04/15 08:14:05;;;;;;;;;;;;;;;14.23;58.31;101666.84;4988043;28;6878;-73
2022/04/15 08:16:31;;;;;;;;;;;;;;;14.23;57.50;101666.84;4988416;28;6872;-73
2022/04/15 08:18:56;;;;;;;;;;;;;;;14.23;57.54;101668.53;4986049;28;6947;-73
2022/04/15 08:21:23;;;;;;;;;;;;;;;14.25;57.57;101664.34;4972526;28;6953;-73
2022/04/15 08:23:50;;;;;;;;;;;;;;;14.23;57.39;101668.53;4988939;28;6800;-73
2022/04/15 08:26:15;;;;;;;;;;;;;;;14.19;57.20;101675.19;4989259;28;6803;-73
2022/04/15 08:28:41;;;;;;;;;;;;;;;14.14;57.71;101669.81;4988905;28;6898;-73
2022/04/15 08:31:08;;;;;;;;;;;;;;;14.13;58.36;101664.59;4987419;28;7066;-73
2022/04/15 08:33:37;;;;;;;;;;;;;;;14.11;57.76;101666.19;4990675;28;6812;-73
2022/04/15 08:36:03;;;;;;;;;;;;;;;14.11;57.75;101671.34;4983976;28;6816;-73
2022/04/15 08:38:29;;;;;;;;;;;;;;;14.13;58.07;101675.75;4985998;28;6965;-73
2022/04/15 08:40:58;;;;;;;;;;;;;;;14.17;57.88;101676.81;4988011;28;7016;-73
2022/04/15 08:43:25;;;;;;;;;;;;;;;14.19;58.28;101679.50;4985375;28;8012;-73
2022/04/15 08:45:53;;;;;;;;;;;;;;;14.18;57.63;101683.75;4988372;28;6896;-73
2022/04/15 08:48:18;;;;;;;;;;;;;;;14.19;58.45;101688.09;5002796;28;7176;-73
2022/04/15 08:50:44;;;;;;;;;;;;;;;14.22;58.92;101690.88;4986045;28;6819;-73
2022/04/15 08:53:11;;;;;;;;;;;;;;;14.24;57.67;101698.66;4987285;28;6895;-73
2022/04/15 08:55:37;;;;;;;;;;;;;;;14.22;57.68;101696.03;4972066;28;6796;-73
2022/04/15 08:58:03;;;;;;;;;;;;;;;14.21;57.29;101695.94;4987905;28;6792;-73
2022/04/15 09:00:29;;;;;;;;;;;;;;;14.20;58.25;101702.78;4986392;28;7069;-73
2022/04/15 09:02:56;;;;;;;;;;;;;;;14.17;57.33;101705.19;4986176;28;6795;-73
2022/04/15 09:05:28;;;;;;;;;;;;;;;14.19;58.21;101713.00;4989448;28;7880;-73
2022/04/15 09:08:02;;;;;;;;;;;;;;;14.21;58.65;101709.72;4986892;28;6823;-73
2022/04/15 09:10:28;;;;;;;;;;;;;;;14.23;58.21;101715.84;4987890;28;7267;-73
2022/04/15 09:12:54;;;;;;;;;;;;;;;14.27;57.36;101711.75;4988256;28;6792;-73
2022/04/15 09:15:19;;;;;;;;;;;;;;;14.31;58.06;101721.41;4968954;28;6808;-73
2022/04/15 09:17:49;;;;;;;;;;;;;;;14.34;57.97;101715.53;5005639;28;6815;-73
2022/04/15 09:20:16;;;;;;;;;;;;;;;14.35;57.49;101722.44;4972083;28;7165;-73
2022/04/15 09:22:43;;;;;;;;;;;;;;;14.32;57.49;101733.47;4986579;28;7310;-73
2022/04/15 09:25:11;;;;;;;;;;;;;;;14.26;57.56;101728.00;5004416;28;6780;-73
2022/04/15 09:27:37;;;;;;;;;;;;;;;14.22;56.84;101731.22;4988208;28;7240;-73
2022/04/15 09:30:05;;;;;;;;;;;;;;;14.20;57.27;101733.72;5004248;28;6800;-73
2022/04/15 09:32:31;;;;;;;;;;;;;;;14.22;57.26;101742.44;4985233;28;7919;-73
2022/04/15 09:34:57;;;;;;;;;;;;;;;14.24;57.33;101734.75;4985009;28;6779;-73
2022/04/15 09:37:34;;;;;;;;;;;;;;;14.28;57.85;101741.88;5005536;28;6807;-73
2022/04/15 09:40:12;;;;;;;;;;;;;;;14.30;56.84;101741.16;4988889;28;6824;-73
2022/04/15 09:42:52;;;;;;;;;;;;;;;14.33;56.97;101744.69;4989255;28;7319;-73
2022/04/15 09:45:25;;;;;;;;;;;;;;;14.37;57.83;101746.63;4988717;28;7063;-73
2022/04/15 09:48:06;;;;;;;;;;;;;;;14.44;56.64;101738.44;4989467;28;6815;-73
2022/04/15 09:50:44;;;;;;;;;;;;;;;14.47;57.25;101745.44;4989507;28;7182;-73
2022/04/15 09:53:14;;;;;;;;;;;;;;;14.50;57.47;101743.91;4990070;28;6808;-73
2022/04/15 09:55:43;;;;;;;;;;;;;;;14.60;57.05;101747.00;4989077;28;7152;-73
2022/04/15 09:58:11;;;;;;;;;;;;;;;14.71;56.97;101751.03;4984256;28;6800;-73
2022/04/15 10:00:41;;;;;;;;;;;;;;;14.82;56.75;101747.34;4986483;28;6868;-73
2022/04/15 10:03:17;;;;;;;;;;;;;;;14.92;56.12;101748.72;4973185;28;7000;-73
2022/04/15 10:05:43;;;;;;;;;;;;;;;14.93;56.44;101745.31;4988038;28;6804;-73
2022/04/15 10:08:10;;;;;;;;;;;;;;;14.92;56.30;101747.81;4973490;28;7133;-73
2022/04/15 10:10:37;;;;;;;;;;;;;;;14.96;56.43;101750.63;4989214;28;7150;-73
2022/04/15 10:13:05;;;;;;;;;;;;;;;15.08;56.82;101747.81;4988590;28;6876;-73
2022/04/15 10:15:33;;;;;;;;;;;;;;;15.33;57.19;101745.56;4988072;28;7186;-73
2022/04/15 10:18:01;;;;;;;;;;;;;;;15.87;57.50;101735.25;4973567;28;7173;-73
2022/04/15 10:20:31;;;;;;;;;;;;;;;16.70;56.52;101729.53;4987120;28;7632;-73
2022/04/15 10:23:04;;;;;;;;;;;;;;;17.32;54.55;101728.72;4987035;28;6888;-74
2022/04/15 10:25:31;;;;;;;;;;;;;;;17.65;53.54;101722.25;4986553;28;6976;-74
2022/04/15 10:28:42;;;;;;;;;;;;;;;18.23;52.78;101715.00;4989490;28;6808;-74
2022/04/15 10:31:40;;;;;;;;;;;;;;;18.98;51.84;101722.00;4988332;28;6896;-74
2022/04/15 10:34:17;;;;;;;;;;;;;;;19.57;50.42;101713.56;4988664;28;6792;-74
2022/04/15 10:36:52;;;;;;;;;;;;;;;19.94;49.79;101713.88;4972195;28;7388;-74
2022/04/15 10:39:20;;;;;;;;;;;;;;;20.11;48.95;101709.16;4988521;28;6816;-74
2022/04/15 10:41:45;;;;;;;;;;;;;;;20.24;48.40;101702.59;4971597;28;6792;-73
2022/04/15 10:44:29;;;;;;;;;;;;;;;20.26;47.69;101708.72;4990064;28;6797;-73
2022/04/15 10:47:17;;;;;;;;;;;;;;;20.18;46.61;101707.63;4989982;28;6896;-73
2022/04/15 10:49:54;;;;;;;;;;;;;;;20.05;47.06;101708.09;5000410;28;6981;-73
2022/04/15 10:52:24;;;;;;;;;;;;;;;20.05;46.32;101711.56;4967610;28;6808;-73
2022/04/15 10:54:59;;;;;;;;;;;;;;;20.33;46.69;101712.38;4988870;28;6808;-73
2022/04/15 10:57:40;;;;;;;;;;;;;;;20.78;45.87;101705.78;4989721;28;8564;-73
2022/04/15 11:03:41;;;;;;;;;;;;;;;21.28;43.88;101701.84;4984928;28;6827;-73
2022/04/15 11:06:09;;;;;;;;;;;;;;;21.29;44.13;101706.22;4954840;28;7198;-73
2022/04/15 11:08:48;;;;;;;;;;;;;;;21.49;43.39;101705.84;4982344;28;6808;-73
2022/04/15 11:11:16;;;;;;;;;;;;;;;21.54;42.93;101704.19;4972200;28;6820;-73
2022/04/15 11:13:45;;;;;;;;;;;;;;;21.30;42.69;101699.28;4989883;28;6990;-73
2022/04/15 11:16:13;;;;;;;;;;;;;;;20.97;42.54;101702.81;4986998;28;6973;-73
2022/04/15 11:18:54;;;;;;;;;;;;;;;20.74;42.86;101703.94;4990109;28;7054;-73
2022/04/15 11:21:29;;;;;;;;;;;;;;;20.93;42.89;101697.50;4971901;28;6980;-73
2022/04/15 11:24:04;;;;;;;;;;;;;;;21.01;42.65;101696.84;4977777;28;7009;-73
2022/04/15 11:26:32;;;;;;;;;;;;;;;20.90;42.19;101699.16;5005829;28;6819;-73
2022/04/15 11:29:02;;;;;;;;;;;;;;;20.74;42.25;101701.34;4971121;28;6872;-73
2022/04/15 11:31:32;;;;;;;;;;;;;;;20.79;43.00;101693.66;4975733;28;7195;-73
2022/04/15 11:34:13;;;;;;;;;;;;;;;21.25;42.46;101687.88;4975011;28;6947;-73
2022/04/15 11:36:45;;;;;;;;;;;;;;;21.84;42.20;101687.50;4988579;28;7973;-73
2022/04/15 11:39:13;;;;;;;;;;;;;;;22.28;41.18;101697.09;4986654;28;6896;-73
2022/04/15 11:41:49;;;;;;;;;;;;;;;22.43;40.52;101690.44;4974027;28;7228;-73
2022/04/15 11:44:17;;;;;;;;;;;;;;;22.44;40.49;101685.22;4970921;28;6976;-73
2022/04/15 11:46:50;;;;;;;;;;;;;;;22.57;40.22;101689.00;4991393;28;6958;-73
2022/04/15 11:49:27;;;;;;;;;;;;;;;22.49;40.20;101693.19;4991101;28;7033;-73
2022/04/15 11:51:56;;;;;;;;;;;;;;;22.20;40.10;101685.63;4989175;28;6800;-73
2022/04/15 11:54:33;;;;;;;;;;;;;;;21.94;40.57;101690.31;4990420;28;6867;-73
2022/04/15 11:57:05;;;;;;;;;;;;;;;21.64;40.19;101687.91;5005473;28;6880;-73
2022/04/15 11:59:43;;;;;;;;;;;;;;;21.50;40.95;101685.00;4974708;28;7800;-73
2022/04/15 12:02:14;;;;;;;;;;;;;;;21.83;41.22;101682.28;4988467;28;7541;-73
2022/04/15 12:04:57;;;;;;;;;;;;;;;22.84;40.70;101677.28;4988114;28;6824;-73
2022/04/15 12:07:25;;;;;;;;;;;;;;;24.07;39.59;101671.28;4971558;28;6796;-73
2022/04/15 12:09:53;;;;;;;;;;;;;;;25.24;37.92;101662.78;4990360;28;6800;-73
2022/04/15 12:12:24;;;;;;;;;;;;;;;26.03;36.71;101670.25;4991745;28;6808;-73
2022/04/15 12:14:51;;;;;;;;;;;;;;;26.14;35.96;101667.63;4998529;28;7082;-73
2022/04/15 12:17:17;;;;;;;;;;;;;;;25.73;35.59;101668.38;4973415;28;7155;-73
2022/04/15 12:19:43;;;;;;;;;;;;;;;25.02;36.50;101677.50;4971233;28;6983;-74
2022/04/15 12:22:10;;;;;;;;;;;;;;;24.69;36.95;101674.56;4973509;28;6964;-73
2022/04/15 12:24:36;;;;;;;;;;;;;;;25.01;36.86;101669.63;4989412;28;6808;-73
2022/04/15 12:27:03;;;;;;;;;;;;;;;25.40;36.12;101662.00;4987728;28;6808;-73
2022/04/15 12:29:48;;;;;;;;;;;;;;;25.95;35.64;101665.81;5006780;28;7214;-73
2022/04/15 12:32:24;;;;;;;;;;;;;;;26.63;34.79;101666.03;4991908;28;7619;-73
2022/04/15 12:35:10;;;;;;;;;;;;;;;26.86;33.68;101667.81;4988429;28;6974;-73
2022/04/15 12:37:43;;;;;;;;;;;;;;;26.18;33.55;101664.16;5003493;28;6904;-73
2022/04/15 12:40:12;;;;;;;;;;;;;;;25.72;33.84;101666.63;4989761;28;6815;-73
2022/04/15 12:42:40;;;;;;;;;;;;;;;25.43;34.92;101673.41;4971715;28;6936;-73
2022/04/15 12:45:16;;;;;;;;;;;;;;;25.58;34.56;101664.78;4989801;28;6800;-73
2022/04/15 12:47:47;;;;;;;;;;;;;;;25.41;33.73;101663.78;4970839;28;7216;-73
2022/04/15 12:50:33;;;;;;;;;;;;;;;24.65;33.79;101672.75;4983742;28;6998;-73
2022/04/15 12:53:01;;;;;;;;;;;;;;;23.91;35.21;101666.69;4985023;28;7018;-73
2022/04/15 12:55:31;;;;;;;;;;;;;;;23.93;35.39;101670.22;4987722;28;7892;-73
2022/04/15 12:58:01;;;;;;;;;;;;;;;24.43;35.57;101662.94;4990372;28;6808;-73